sensor_id;sensor_type;location;lat;lon;timestamp;P1;durP1;ratioP1;P2;durP2;ratioP2
20140;SDS011;10231;47.702;9.826;2022-10-16T00:01:07;5.53;;;1.97;;
20140;SDS011;10231;47.702;9.826;2022-10-16T00:03:36;3.20;;;2.63;;
20140;SDS011;10231;47.702;9.826;2022-10-16T00:06:02;2.67;;;1.70;;
20140;SDS011;10231;47.702;9.826;2022-10-16T00:08:28;3.50;;;2.13;;
20140;SDS011;10231;47.702;9.826;2022-10-16T00:10:58;2.70;;;1.93;;
20140;SDS011;10231;47.702;9.826;2022-10-16T00:13:25;2.83;;;1.77;;
20140;SDS011;10231;47.702;9.826;2022-10-16T00:15:54;2.60;;;1.90;;
20140;SDS011;10231;47.702;9.826;2022-10-16T00:18:21;1.50;;;1.40;;
20140;SDS011;10231;47.702;9.826;2022-10-16T00:20:46;1.73;;;1.63;;
20140;SDS011;10231;47.702;9.826;2022-10-16T00:23:12;3.80;;;2.57;;
20140;SDS011;10231;47.702;9.826;2022-10-16T00:25:37;4.23;;;1.73;;
20140;SDS011;10231;47.702;9.826;2022-10-16T00:28:03;9.70;;;2.40;;
20140;SDS011;10231;47.702;9.826;2022-10-16T00:30:29;9.07;;;2.53;;
20140;SDS011;10231;47.702;9.826;2022-10-16T00:32:55;7.20;;;3.27;;
20140;SDS011;10231;47.702;9.826;2022-10-16T00:35:21;4.63;;;2.50;;
20140;SDS011;10231;47.702;9.826;2022-10-16T00:37:46;5.47;;;2.13;;
20140;SDS011;10231;47.702;9.826;2022-10-16T00:40:12;3.00;;;2.20;;
20140;SDS011;10231;47.702;9.826;2022-10-16T00:42:38;3.53;;;1.80;;
20140;SDS011;10231;47.702;9.826;2022-10-16T00:45:04;2.60;;;1.50;;
20140;SDS011;10231;47.702;9.826;2022-10-16T00:47:31;3.73;;;1.43;;
20140;SDS011;10231;47.702;9.826;2022-10-16T00:50:02;3.73;;;2.20;;
20140;SDS011;10231;47.702;9.826;2022-10-16T00:52:32;2.40;;;1.47;;
20140;SDS011;10231;47.702;9.826;2022-10-16T00:54:59;2.47;;;2.10;;
20140;SDS011;10231;47.702;9.826;2022-10-16T00:57:26;2.23;;;1.50;;
20140;SDS011;10231;47.702;9.826;2022-10-16T00:59:52;2.97;;;1.47;;
20140;SDS011;10231;47.702;9.826;2022-10-16T01:02:18;2.70;;;1.70;;
20140;SDS011;10231;47.702;9.826;2022-10-16T01:04:48;3.93;;;1.90;;
20140;SDS011;10231;47.702;9.826;2022-10-16T01:13:11;4.57;;;2.33;;
20140;SDS011;10231;47.702;9.826;2022-10-16T01:18:31;7.10;;;2.20;;
20140;SDS011;10231;47.702;9.826;2022-10-16T01:21:12;2.93;;;1.77;;
20140;SDS011;10231;47.702;9.826;2022-10-16T01:28:56;5.00;;;1.93;;
20140;SDS011;10231;47.702;9.826;2022-10-16T01:31:34;3.57;;;2.30;;
20140;SDS011;10231;47.702;9.826;2022-10-16T01:34:02;6.27;;;2.13;;
20140;SDS011;10231;47.702;9.826;2022-10-16T01:36:56;3.50;;;1.90;;
20140;SDS011;10231;47.702;9.826;2022-10-16T01:39:28;3.87;;;1.83;;
20140;SDS011;10231;47.702;9.826;2022-10-16T01:42:43;1.73;;;1.63;;
20140;SDS011;10231;47.702;9.826;2022-10-16T01:44:51;5.87;;;2.10;;
20140;SDS011;10231;47.702;9.826;2022-10-16T01:47:18;2.87;;;1.90;;
20140;SDS011;10231;47.702;9.826;2022-10-16T01:49:48;2.10;;;1.90;;
20140;SDS011;10231;47.702;9.826;2022-10-16T01:52:16;1.97;;;1.60;;
20140;SDS011;10231;47.702;9.826;2022-10-16T01:54:45;4.80;;;1.63;;
20140;SDS011;10231;47.702;9.826;2022-10-16T01:57:12;3.77;;;2.40;;
20140;SDS011;10231;47.702;9.826;2022-10-16T01:59:44;3.27;;;1.70;;
20140;SDS011;10231;47.702;9.826;2022-10-16T02:02:13;5.20;;;1.70;;
20140;SDS011;10231;47.702;9.826;2022-10-16T02:04:42;5.13;;;1.67;;
20140;SDS011;10231;47.702;9.826;2022-10-16T02:07:11;2.30;;;1.27;;
20140;SDS011;10231;47.702;9.826;2022-10-16T02:09:37;2.80;;;1.37;;
20140;SDS011;10231;47.702;9.826;2022-10-16T02:12:14;2.23;;;1.27;;
20140;SDS011;10231;47.702;9.826;2022-10-16T02:14:46;1.27;;;1.17;;
20140;SDS011;10231;47.702;9.826;2022-10-16T02:17:12;4.50;;;1.87;;
20140;SDS011;10231;47.702;9.826;2022-10-16T02:19:40;3.03;;;1.37;;
20140;SDS011;10231;47.702;9.826;2022-10-16T02:22:07;3.63;;;1.57;;
20140;SDS011;10231;47.702;9.826;2022-10-16T02:24:38;2.50;;;1.27;;
20140;SDS011;10231;47.702;9.826;2022-10-16T02:27:14;3.30;;;1.20;;
20140;SDS011;10231;47.702;9.826;2022-10-16T02:29:53;1.30;;;1.20;;
20140;SDS011;10231;47.702;9.826;2022-10-16T02:32:24;3.80;;;1.50;;
20140;SDS011;10231;47.702;9.826;2022-10-16T02:34:55;2.77;;;1.20;;
20140;SDS011;10231;47.702;9.826;2022-10-16T02:37:23;1.93;;;1.43;;
20140;SDS011;10231;47.702;9.826;2022-10-16T02:39:50;2.77;;;1.10;;
20140;SDS011;10231;47.702;9.826;2022-10-16T02:42:17;3.83;;;1.50;;
20140;SDS011;10231;47.702;9.826;2022-10-16T02:44:43;5.27;;;1.23;;
20140;SDS011;10231;47.702;9.826;2022-10-16T02:47:09;2.23;;;1.10;;
20140;SDS011;10231;47.702;9.826;2022-10-16T02:49:35;1.87;;;1.23;;
20140;SDS011;10231;47.702;9.826;2022-10-16T02:52:00;4.50;;;1.27;;
20140;SDS011;10231;47.702;9.826;2022-10-16T02:54:26;2.87;;;1.07;;
20140;SDS011;10231;47.702;9.826;2022-10-16T02:56:52;2.10;;;0.90;;
20140;SDS011;10231;47.702;9.826;2022-10-16T02:59:17;2.87;;;1.30;;
20140;SDS011;10231;47.702;9.826;2022-10-16T03:01:43;2.93;;;1.60;;
20140;SDS011;10231;47.702;9.826;2022-10-16T03:04:08;3.30;;;1.73;;
20140;SDS011;10231;47.702;9.826;2022-10-16T03:06:34;3.83;;;1.80;;
20140;SDS011;10231;47.702;9.826;2022-10-16T03:08:59;3.70;;;2.07;;
20140;SDS011;10231;47.702;9.826;2022-10-16T03:11:25;1.87;;;1.40;;
20140;SDS011;10231;47.702;9.826;2022-10-16T03:13:51;3.70;;;1.40;;
20140;SDS011;10231;47.702;9.826;2022-10-16T03:16:17;4.23;;;2.60;;
20140;SDS011;10231;47.702;9.826;2022-10-16T03:18:42;4.90;;;2.43;;
20140;SDS011;10231;47.702;9.826;2022-10-16T03:21:08;2.80;;;1.70;;
20140;SDS011;10231;47.702;9.826;2022-10-16T03:23:33;2.50;;;1.40;;
20140;SDS011;10231;47.702;9.826;2022-10-16T03:25:59;2.77;;;2.20;;
20140;SDS011;10231;47.702;9.826;2022-10-16T03:28:25;2.80;;;1.87;;
20140;SDS011;10231;47.702;9.826;2022-10-16T03:30:50;2.00;;;1.50;;
20140;SDS011;10231;47.702;9.826;2022-10-16T03:33:16;4.03;;;1.83;;
20140;SDS011;10231;47.702;9.826;2022-10-16T03:35:41;2.73;;;1.40;;
20140;SDS011;10231;47.702;9.826;2022-10-16T03:38:07;1.63;;;1.43;;
20140;SDS011;10231;47.702;9.826;2022-10-16T03:40:33;4.27;;;1.30;;
20140;SDS011;10231;47.702;9.826;2022-10-16T03:42:59;1.40;;;1.30;;
20140;SDS011;10231;47.702;9.826;2022-10-16T03:45:24;1.80;;;1.47;;
20140;SDS011;10231;47.702;9.826;2022-10-16T03:47:51;1.90;;;1.70;;
20140;SDS011;10231;47.702;9.826;2022-10-16T03:50:16;3.23;;;1.27;;
20140;SDS011;10231;47.702;9.826;2022-10-16T03:52:42;1.40;;;1.30;;
20140;SDS011;10231;47.702;9.826;2022-10-16T03:55:07;1.60;;;1.00;;
20140;SDS011;10231;47.702;9.826;2022-10-16T03:57:33;1.30;;;1.20;;
20140;SDS011;10231;47.702;9.826;2022-10-16T03:59:59;1.47;;;1.40;;
20140;SDS011;10231;47.702;9.826;2022-10-16T04:02:24;2.50;;;1.33;;
20140;SDS011;10231;47.702;9.826;2022-10-16T04:04:50;2.93;;;1.30;;
20140;SDS011;10231;47.702;9.826;2022-10-16T04:07:16;3.13;;;1.17;;
20140;SDS011;10231;47.702;9.826;2022-10-16T04:09:41;4.27;;;1.40;;
20140;SDS011;10231;47.702;9.826;2022-10-16T04:12:07;1.30;;;1.20;;
20140;SDS011;10231;47.702;9.826;2022-10-16T04:14:32;3.80;;;1.00;;
20140;SDS011;10231;47.702;9.826;2022-10-16T04:16:58;1.67;;;0.93;;
20140;SDS011;10231;47.702;9.826;2022-10-16T04:19:24;2.60;;;1.60;;
20140;SDS011;10231;47.702;9.826;2022-10-16T04:21:50;3.77;;;0.90;;
20140;SDS011;10231;47.702;9.826;2022-10-16T04:24:15;1.23;;;1.23;;
20140;SDS011;10231;47.702;9.826;2022-10-16T04:26:41;2.00;;;1.40;;
20140;SDS011;10231;47.702;9.826;2022-10-16T04:29:06;3.97;;;0.97;;
20140;SDS011;10231;47.702;9.826;2022-10-16T04:31:32;6.97;;;1.17;;
20140;SDS011;10231;47.702;9.826;2022-10-16T04:33:58;3.07;;;0.90;;
20140;SDS011;10231;47.702;9.826;2022-10-16T04:36:23;1.87;;;0.87;;
20140;SDS011;10231;47.702;9.826;2022-10-16T04:38:49;2.03;;;0.90;;
20140;SDS011;10231;47.702;9.826;2022-10-16T04:41:15;2.57;;;1.10;;
20140;SDS011;10231;47.702;9.826;2022-10-16T04:43:40;0.77;;;0.73;;
20140;SDS011;10231;47.702;9.826;2022-10-16T04:46:06;4.10;;;1.40;;
20140;SDS011;10231;47.702;9.826;2022-10-16T04:48:32;2.07;;;0.90;;
20140;SDS011;10231;47.702;9.826;2022-10-16T04:50:58;0.87;;;0.70;;
20140;SDS011;10231;47.702;9.826;2022-10-16T04:53:24;3.47;;;1.17;;
20140;SDS011;10231;47.702;9.826;2022-10-16T04:55:49;1.43;;;0.80;;
20140;SDS011;10231;47.702;9.826;2022-10-16T04:58:15;3.33;;;0.90;;
20140;SDS011;10231;47.702;9.826;2022-10-16T05:00:41;3.43;;;0.80;;
20140;SDS011;10231;47.702;9.826;2022-10-16T05:03:07;2.70;;;1.10;;
20140;SDS011;10231;47.702;9.826;2022-10-16T05:05:34;0.80;;;0.80;;
20140;SDS011;10231;47.702;9.826;2022-10-16T05:08:00;4.67;;;1.03;;
20140;SDS011;10231;47.702;9.826;2022-10-16T05:10:25;6.53;;;1.20;;
20140;SDS011;10231;47.702;9.826;2022-10-16T05:12:51;0.83;;;0.83;;
20140;SDS011;10231;47.702;9.826;2022-10-16T05:15:17;2.57;;;1.17;;
20140;SDS011;10231;47.702;9.826;2022-10-16T05:17:43;2.37;;;1.27;;
20140;SDS011;10231;47.702;9.826;2022-10-16T05:20:09;17.33;;;15.53;;
20140;SDS011;10231;47.702;9.826;2022-10-16T05:22:35;10.43;;;9.13;;
20140;SDS011;10231;47.702;9.826;2022-10-16T05:25:00;8.73;;;7.70;;
20140;SDS011;10231;47.702;9.826;2022-10-16T05:27:26;6.43;;;5.83;;
20140;SDS011;10231;47.702;9.826;2022-10-16T05:29:51;2.80;;;2.60;;
20140;SDS011;10231;47.702;9.826;2022-10-16T05:32:18;1.40;;;1.37;;
20140;SDS011;10231;47.702;9.826;2022-10-16T05:34:44;1.40;;;1.23;;
20140;SDS011;10231;47.702;9.826;2022-10-16T05:37:09;1.50;;;0.90;;
20140;SDS011;10231;47.702;9.826;2022-10-16T05:39:36;1.90;;;1.23;;
20140;SDS011;10231;47.702;9.826;2022-10-16T05:42:03;2.80;;;1.73;;
20140;SDS011;10231;47.702;9.826;2022-10-16T05:44:29;2.30;;;1.13;;
20140;SDS011;10231;47.702;9.826;2022-10-16T05:46:55;2.87;;;1.20;;
20140;SDS011;10231;47.702;9.826;2022-10-16T05:49:21;3.40;;;1.10;;
20140;SDS011;10231;47.702;9.826;2022-10-16T05:51:46;6.60;;;1.43;;
20140;SDS011;10231;47.702;9.826;2022-10-16T05:54:12;5.47;;;0.90;;
20140;SDS011;10231;47.702;9.826;2022-10-16T05:56:37;4.33;;;1.13;;
20140;SDS011;10231;47.702;9.826;2022-10-16T05:59:04;1.80;;;1.00;;
20140;SDS011;10231;47.702;9.826;2022-10-16T06:01:30;2.07;;;1.00;;
20140;SDS011;10231;47.702;9.826;2022-10-16T06:03:56;3.17;;;0.93;;
20140;SDS011;10231;47.702;9.826;2022-10-16T06:06:22;3.33;;;1.10;;
20140;SDS011;10231;47.702;9.826;2022-10-16T06:08:51;0.80;;;0.80;;
20140;SDS011;10231;47.702;9.826;2022-10-16T06:11:18;2.97;;;1.37;;
20140;SDS011;10231;47.702;9.826;2022-10-16T06:13:45;1.70;;;1.10;;
20140;SDS011;10231;47.702;9.826;2022-10-16T06:16:18;1.10;;;1.00;;
20140;SDS011;10231;47.702;9.826;2022-10-16T06:18:44;1.90;;;0.90;;
20140;SDS011;10231;47.702;9.826;2022-10-16T06:21:14;2.53;;;1.13;;
20140;SDS011;10231;47.702;9.826;2022-10-16T06:23:43;5.60;;;1.00;;
20140;SDS011;10231;47.702;9.826;2022-10-16T06:26:10;3.00;;;1.00;;
20140;SDS011;10231;47.702;9.826;2022-10-16T06:28:37;4.43;;;0.80;;
20140;SDS011;10231;47.702;9.826;2022-10-16T06:31:04;4.67;;;0.87;;
20140;SDS011;10231;47.702;9.826;2022-10-16T06:33:30;2.57;;;1.10;;
20140;SDS011;10231;47.702;9.826;2022-10-16T06:36:09;3.83;;;0.80;;
20140;SDS011;10231;47.702;9.826;2022-10-16T06:38:42;3.27;;;0.80;;
20140;SDS011;10231;47.702;9.826;2022-10-16T06:41:09;2.10;;;0.80;;
20140;SDS011;10231;47.702;9.826;2022-10-16T06:43:43;2.93;;;1.13;;
20140;SDS011;10231;47.702;9.826;2022-10-16T06:46:10;0.80;;;0.80;;
20140;SDS011;10231;47.702;9.826;2022-10-16T06:48:37;1.87;;;1.53;;
20140;SDS011;10231;47.702;9.826;2022-10-16T06:51:04;2.60;;;1.03;;
20140;SDS011;10231;47.702;9.826;2022-10-16T06:53:35;2.30;;;1.10;;
20140;SDS011;10231;47.702;9.826;2022-10-16T06:58:34;1.67;;;0.73;;
20140;SDS011;10231;47.702;9.826;2022-10-16T07:00:59;2.00;;;0.77;;
20140;SDS011;10231;47.702;9.826;2022-10-16T07:03:25;1.33;;;0.83;;
20140;SDS011;10231;47.702;9.826;2022-10-16T07:05:50;1.17;;;1.07;;
20140;SDS011;10231;47.702;9.826;2022-10-16T07:08:16;3.03;;;1.33;;
20140;SDS011;10231;47.702;9.826;2022-10-16T07:10:41;1.50;;;1.20;;
20140;SDS011;10231;47.702;9.826;2022-10-16T07:13:07;1.67;;;0.87;;
20140;SDS011;10231;47.702;9.826;2022-10-16T07:15:33;2.53;;;1.00;;
20140;SDS011;10231;47.702;9.826;2022-10-16T07:17:59;0.97;;;0.90;;
20140;SDS011;10231;47.702;9.826;2022-10-16T07:20:24;2.30;;;0.90;;
20140;SDS011;10231;47.702;9.826;2022-10-16T07:22:50;2.23;;;0.90;;
20140;SDS011;10231;47.702;9.826;2022-10-16T07:25:16;2.67;;;0.80;;
20140;SDS011;10231;47.702;9.826;2022-10-16T07:27:42;2.10;;;1.00;;
20140;SDS011;10231;47.702;9.826;2022-10-16T07:30:08;1.73;;;0.60;;
20140;SDS011;10231;47.702;9.826;2022-10-16T07:32:34;2.50;;;1.77;;
20140;SDS011;10231;47.702;9.826;2022-10-16T07:34:59;3.50;;;1.33;;
20140;SDS011;10231;47.702;9.826;2022-10-16T07:37:25;2.90;;;1.60;;
20140;SDS011;10231;47.702;9.826;2022-10-16T07:39:50;1.37;;;1.27;;
20140;SDS011;10231;47.702;9.826;2022-10-16T07:42:16;2.70;;;1.40;;
20140;SDS011;10231;47.702;9.826;2022-10-16T07:44:42;2.07;;;1.17;;
20140;SDS011;10231;47.702;9.826;2022-10-16T07:47:09;2.07;;;0.90;;
20140;SDS011;10231;47.702;9.826;2022-10-16T07:49:34;1.37;;;0.80;;
20140;SDS011;10231;47.702;9.826;2022-10-16T07:52:00;1.30;;;1.30;;
20140;SDS011;10231;47.702;9.826;2022-10-16T07:54:26;1.27;;;1.00;;
20140;SDS011;10231;47.702;9.826;2022-10-16T07:56:51;2.23;;;1.03;;
20140;SDS011;10231;47.702;9.826;2022-10-16T07:59:17;1.60;;;1.50;;
20140;SDS011;10231;47.702;9.826;2022-10-16T08:01:42;1.20;;;1.10;;
20140;SDS011;10231;47.702;9.826;2022-10-16T08:04:08;2.70;;;1.00;;
20140;SDS011;10231;47.702;9.826;2022-10-16T08:06:35;2.63;;;0.80;;
20140;SDS011;10231;47.702;9.826;2022-10-16T08:09:02;5.07;;;1.10;;
20140;SDS011;10231;47.702;9.826;2022-10-16T08:11:29;2.93;;;1.23;;
20140;SDS011;10231;47.702;9.826;2022-10-16T08:13:54;2.37;;;1.17;;
20140;SDS011;10231;47.702;9.826;2022-10-16T08:16:20;1.27;;;1.20;;
20140;SDS011;10231;47.702;9.826;2022-10-16T08:18:46;3.00;;;1.30;;
20140;SDS011;10231;47.702;9.826;2022-10-16T08:21:12;4.00;;;1.40;;
20140;SDS011;10231;47.702;9.826;2022-10-16T08:23:40;1.70;;;1.00;;
20140;SDS011;10231;47.702;9.826;2022-10-16T08:26:06;1.00;;;1.00;;
20140;SDS011;10231;47.702;9.826;2022-10-16T08:28:33;1.90;;;1.07;;
20140;SDS011;10231;47.702;9.826;2022-10-16T08:31:06;1.03;;;0.90;;
20140;SDS011;10231;47.702;9.826;2022-10-16T08:33:33;1.90;;;1.07;;
20140;SDS011;10231;47.702;9.826;2022-10-16T08:36:00;1.27;;;1.17;;
20140;SDS011;10231;47.702;9.826;2022-10-16T08:38:26;1.57;;;0.80;;
20140;SDS011;10231;47.702;9.826;2022-10-16T08:40:51;1.00;;;1.00;;
20140;SDS011;10231;47.702;9.826;2022-10-16T08:43:34;2.37;;;1.17;;
20140;SDS011;10231;47.702;9.826;2022-10-16T08:46:22;2.90;;;1.00;;
20140;SDS011;10231;47.702;9.826;2022-10-16T08:48:53;1.57;;;1.00;;
20140;SDS011;10231;47.702;9.826;2022-10-16T08:51:24;1.87;;;1.10;;
20140;SDS011;10231;47.702;9.826;2022-10-16T08:53:55;1.60;;;1.00;;
20140;SDS011;10231;47.702;9.826;2022-10-16T08:56:21;1.43;;;0.93;;
20140;SDS011;10231;47.702;9.826;2022-10-16T08:58:47;2.60;;;1.07;;
20140;SDS011;10231;47.702;9.826;2022-10-16T09:01:15;1.40;;;1.00;;
20140;SDS011;10231;47.702;9.826;2022-10-16T09:06:49;0.90;;;0.90;;
20140;SDS011;10231;47.702;9.826;2022-10-16T09:09:40;1.20;;;0.73;;
20140;SDS011;10231;47.702;9.826;2022-10-16T09:15:20;0.60;;;0.60;;
20140;SDS011;10231;47.702;9.826;2022-10-16T09:18:02;0.93;;;0.60;;
20140;SDS011;10231;47.702;9.826;2022-10-16T09:23:28;1.60;;;0.70;;
20140;SDS011;10231;47.702;9.826;2022-10-16T09:25:55;1.13;;;1.10;;
20140;SDS011;10231;47.702;9.826;2022-10-16T09:28:23;0.70;;;0.70;;
20140;SDS011;10231;47.702;9.826;2022-10-16T09:30:48;0.83;;;0.60;;
20140;SDS011;10231;47.702;9.826;2022-10-16T09:33:15;1.50;;;0.60;;
20140;SDS011;10231;47.702;9.826;2022-10-16T09:35:44;0.93;;;0.60;;
20140;SDS011;10231;47.702;9.826;2022-10-16T09:38:22;1.10;;;0.70;;
20140;SDS011;10231;47.702;9.826;2022-10-16T09:41:02;3.13;;;1.43;;
20140;SDS011;10231;47.702;9.826;2022-10-16T09:43:39;0.57;;;0.57;;
20140;SDS011;10231;47.702;9.826;2022-10-16T09:46:30;5.23;;;0.70;;
20140;SDS011;10231;47.702;9.826;2022-10-16T09:48:59;0.73;;;0.60;;
20140;SDS011;10231;47.702;9.826;2022-10-16T09:53:56;2.17;;;0.63;;
20140;SDS011;10231;47.702;9.826;2022-10-16T09:56:33;0.50;;;0.50;;
20140;SDS011;10231;47.702;9.826;2022-10-16T09:59:14;0.73;;;0.50;;
20140;SDS011;10231;47.702;9.826;2022-10-16T10:01:43;0.67;;;0.67;;
20140;SDS011;10231;47.702;9.826;2022-10-16T10:04:14;1.03;;;0.70;;
20140;SDS011;10231;47.702;9.826;2022-10-16T10:06:44;3.23;;;1.80;;
20140;SDS011;10231;47.702;9.826;2022-10-16T10:09:19;0.70;;;0.70;;
20140;SDS011;10231;47.702;9.826;2022-10-16T10:14:26;3.63;;;1.53;;
20140;SDS011;10231;47.702;9.826;2022-10-16T10:19:29;0.70;;;0.70;;
20140;SDS011;10231;47.702;9.826;2022-10-16T10:22:10;3.00;;;0.90;;
20140;SDS011;10231;47.702;9.826;2022-10-16T10:25:00;1.13;;;0.50;;
20140;SDS011;10231;47.702;9.826;2022-10-16T10:41:09;0.40;;;0.40;;
20140;SDS011;10231;47.702;9.826;2022-10-16T10:46:57;1.33;;;0.73;;
20140;SDS011;10231;47.702;9.826;2022-10-16T10:52:34;1.97;;;0.60;;
20140;SDS011;10231;47.702;9.826;2022-10-16T11:00:24;0.47;;;0.40;;
20140;SDS011;10231;47.702;9.826;2022-10-16T11:08:39;0.57;;;0.33;;
20140;SDS011;10231;47.702;9.826;2022-10-16T11:11:20;1.20;;;0.50;;
20140;SDS011;10231;47.702;9.826;2022-10-16T11:16:31;1.23;;;0.70;;
20140;SDS011;10231;47.702;9.826;2022-10-16T11:21:46;0.40;;;0.40;;
20140;SDS011;10231;47.702;9.826;2022-10-16T11:24:49;0.50;;;0.50;;
20140;SDS011;10231;47.702;9.826;2022-10-16T11:27:20;0.60;;;0.60;;
20140;SDS011;10231;47.702;9.826;2022-10-16T11:30:03;0.60;;;0.60;;
20140;SDS011;10231;47.702;9.826;2022-10-16T11:38:26;1.40;;;0.80;;
20140;SDS011;10231;47.702;9.826;2022-10-16T11:40:59;0.60;;;0.40;;
20140;SDS011;10231;47.702;9.826;2022-10-16T11:43:32;0.77;;;0.57;;
20140;SDS011;10231;47.702;9.826;2022-10-16T11:46:17;0.73;;;0.50;;
20140;SDS011;10231;47.702;9.826;2022-10-16T11:51:34;1.77;;;0.60;;
20140;SDS011;10231;47.702;9.826;2022-10-16T11:54:24;0.40;;;0.40;;
20140;SDS011;10231;47.702;9.826;2022-10-16T11:57:01;1.50;;;0.50;;
20140;SDS011;10231;47.702;9.826;2022-10-16T11:59:43;0.87;;;0.50;;
20140;SDS011;10231;47.702;9.826;2022-10-16T12:02:38;1.00;;;0.60;;
20140;SDS011;10231;47.702;9.826;2022-10-16T12:05:27;1.37;;;0.70;;
20140;SDS011;10231;47.702;9.826;2022-10-16T12:08:13;0.70;;;0.30;;
20140;SDS011;10231;47.702;9.826;2022-10-16T12:10:41;0.63;;;0.63;;
20140;SDS011;10231;47.702;9.826;2022-10-16T12:13:28;0.50;;;0.50;;
20140;SDS011;10231;47.702;9.826;2022-10-16T12:18:37;0.40;;;0.40;;
20140;SDS011;10231;47.702;9.826;2022-10-16T12:21:08;0.30;;;0.30;;
20140;SDS011;10231;47.702;9.826;2022-10-16T12:23:45;0.60;;;0.40;;
20140;SDS011;10231;47.702;9.826;2022-10-16T12:26:11;1.70;;;0.40;;
20140;SDS011;10231;47.702;9.826;2022-10-16T12:28:37;0.93;;;0.40;;
20140;SDS011;10231;47.702;9.826;2022-10-16T12:31:07;1.33;;;0.30;;
20140;SDS011;10231;47.702;9.826;2022-10-16T12:33:39;0.90;;;0.37;;
20140;SDS011;10231;47.702;9.826;2022-10-16T12:36:15;0.63;;;0.40;;
20140;SDS011;10231;47.702;9.826;2022-10-16T12:38:52;0.40;;;0.40;;
20140;SDS011;10231;47.702;9.826;2022-10-16T12:41:26;0.30;;;0.30;;
20140;SDS011;10231;47.702;9.826;2022-10-16T12:43:56;0.77;;;0.30;;
20140;SDS011;10231;47.702;9.826;2022-10-16T12:49:04;0.40;;;0.40;;
20140;SDS011;10231;47.702;9.826;2022-10-16T12:51:39;1.00;;;0.53;;
20140;SDS011;10231;47.702;9.826;2022-10-16T12:54:13;0.40;;;0.40;;
20140;SDS011;10231;47.702;9.826;2022-10-16T13:05:13;0.50;;;0.50;;
20140;SDS011;10231;47.702;9.826;2022-10-16T13:07:48;0.40;;;0.40;;
20140;SDS011;10231;47.702;9.826;2022-10-16T13:10:27;1.07;;;0.40;;
20140;SDS011;10231;47.702;9.826;2022-10-16T13:13:13;0.40;;;0.40;;
20140;SDS011;10231;47.702;9.826;2022-10-16T13:21:04;1.40;;;0.40;;
20140;SDS011;10231;47.702;9.826;2022-10-16T13:23:46;0.57;;;0.40;;
20140;SDS011;10231;47.702;9.826;2022-10-16T13:28:59;0.40;;;0.40;;
20140;SDS011;10231;47.702;9.826;2022-10-16T13:31:26;2.77;;;0.60;;
20140;SDS011;10231;47.702;9.826;2022-10-16T13:33:54;0.30;;;0.30;;
20140;SDS011;10231;47.702;9.826;2022-10-16T13:36:25;2.37;;;0.40;;
20140;SDS011;10231;47.702;9.826;2022-10-16T13:39:00;1.13;;;0.63;;
20140;SDS011;10231;47.702;9.826;2022-10-16T13:41:45;0.87;;;0.30;;
20140;SDS011;10231;47.702;9.826;2022-10-16T13:44:15;0.60;;;0.40;;
20140;SDS011;10231;47.702;9.826;2022-10-16T13:46:44;0.47;;;0.40;;
20140;SDS011;10231;47.702;9.826;2022-10-16T13:49:13;0.70;;;0.40;;
20140;SDS011;10231;47.702;9.826;2022-10-16T13:51:40;0.60;;;0.40;;
20140;SDS011;10231;47.702;9.826;2022-10-16T13:54:18;1.83;;;0.83;;
20140;SDS011;10231;47.702;9.826;2022-10-16T13:56:43;0.93;;;0.47;;
20140;SDS011;10231;47.702;9.826;2022-10-16T13:59:54;1.60;;;0.50;;
20140;SDS011;10231;47.702;9.826;2022-10-16T14:01:58;2.57;;;0.60;;
20140;SDS011;10231;47.702;9.826;2022-10-16T14:04:30;0.97;;;0.30;;
20140;SDS011;10231;47.702;9.826;2022-10-16T14:06:57;0.60;;;0.50;;
20140;SDS011;10231;47.702;9.826;2022-10-16T14:09:27;0.80;;;0.40;;
20140;SDS011;10231;47.702;9.826;2022-10-16T14:12:03;0.93;;;0.30;;
20140;SDS011;10231;47.702;9.826;2022-10-16T14:14:38;0.40;;;0.40;;
20140;SDS011;10231;47.702;9.826;2022-10-16T14:17:12;0.73;;;0.30;;
20140;SDS011;10231;47.702;9.826;2022-10-16T14:19:45;0.87;;;0.60;;
20140;SDS011;10231;47.702;9.826;2022-10-16T14:22:24;2.57;;;0.40;;
20140;SDS011;10231;47.702;9.826;2022-10-16T14:25:15;0.30;;;0.30;;
20140;SDS011;10231;47.702;9.826;2022-10-16T14:27:44;1.40;;;0.43;;
20140;SDS011;10231;47.702;9.826;2022-10-16T14:30:12;0.67;;;0.67;;
20140;SDS011;10231;47.702;9.826;2022-10-16T14:32:56;1.43;;;0.40;;
20140;SDS011;10231;47.702;9.826;2022-10-16T14:35:28;0.60;;;0.60;;
20140;SDS011;10231;47.702;9.826;2022-10-16T14:37:59;0.70;;;0.40;;
20140;SDS011;10231;47.702;9.826;2022-10-16T14:40:27;1.13;;;0.40;;
20140;SDS011;10231;47.702;9.826;2022-10-16T14:42:55;1.27;;;0.43;;
20140;SDS011;10231;47.702;9.826;2022-10-16T14:45:24;0.97;;;0.30;;
20140;SDS011;10231;47.702;9.826;2022-10-16T14:47:54;1.03;;;0.40;;
20140;SDS011;10231;47.702;9.826;2022-10-16T14:50:25;1.07;;;0.20;;
20140;SDS011;10231;47.702;9.826;2022-10-16T14:52:51;2.47;;;0.40;;
20140;SDS011;10231;47.702;9.826;2022-10-16T14:55:16;2.90;;;0.70;;
20140;SDS011;10231;47.702;9.826;2022-10-16T14:57:43;1.07;;;0.40;;
20140;SDS011;10231;47.702;9.826;2022-10-16T15:00:20;0.50;;;0.33;;
20140;SDS011;10231;47.702;9.826;2022-10-16T15:02:48;0.53;;;0.40;;
20140;SDS011;10231;47.702;9.826;2022-10-16T15:05:16;0.70;;;0.40;;
20140;SDS011;10231;47.702;9.826;2022-10-16T15:07:44;1.40;;;0.33;;
20140;SDS011;10231;47.702;9.826;2022-10-16T15:10:11;1.30;;;0.40;;
20140;SDS011;10231;47.702;9.826;2022-10-16T15:12:38;2.03;;;0.47;;
20140;SDS011;10231;47.702;9.826;2022-10-16T15:17:47;2.10;;;0.50;;
20140;SDS011;10231;47.702;9.826;2022-10-16T15:20:14;0.50;;;0.40;;
20140;SDS011;10231;47.702;9.826;2022-10-16T15:22:39;0.40;;;0.30;;
20140;SDS011;10231;47.702;9.826;2022-10-16T15:27:52;0.60;;;0.60;;
20140;SDS011;10231;47.702;9.826;2022-10-16T15:30:18;0.40;;;0.40;;
20140;SDS011;10231;47.702;9.826;2022-10-16T15:32:43;1.23;;;0.40;;
20140;SDS011;10231;47.702;9.826;2022-10-16T15:35:09;0.40;;;0.40;;
20140;SDS011;10231;47.702;9.826;2022-10-16T15:37:34;0.30;;;0.30;;
20140;SDS011;10231;47.702;9.826;2022-10-16T15:40:00;0.67;;;0.67;;
20140;SDS011;10231;47.702;9.826;2022-10-16T15:42:26;1.10;;;0.40;;
20140;SDS011;10231;47.702;9.826;2022-10-16T15:44:51;0.50;;;0.50;;
20140;SDS011;10231;47.702;9.826;2022-10-16T15:47:17;2.43;;;0.70;;
20140;SDS011;10231;47.702;9.826;2022-10-16T15:49:42;0.70;;;0.37;;
20140;SDS011;10231;47.702;9.826;2022-10-16T15:52:08;0.77;;;0.43;;
20140;SDS011;10231;47.702;9.826;2022-10-16T15:54:34;0.70;;;0.53;;
20140;SDS011;10231;47.702;9.826;2022-10-16T15:56:59;4.57;;;1.10;;
20140;SDS011;10231;47.702;9.826;2022-10-16T15:59:25;2.33;;;0.57;;
20140;SDS011;10231;47.702;9.826;2022-10-16T16:01:50;1.27;;;0.50;;
20140;SDS011;10231;47.702;9.826;2022-10-16T16:04:16;2.27;;;0.50;;
20140;SDS011;10231;47.702;9.826;2022-10-16T16:06:42;0.50;;;0.50;;
20140;SDS011;10231;47.702;9.826;2022-10-16T16:09:10;1.23;;;0.60;;
20140;SDS011;10231;47.702;9.826;2022-10-16T16:11:36;1.27;;;0.57;;
20140;SDS011;10231;47.702;9.826;2022-10-16T16:14:03;0.40;;;0.40;;
20140;SDS011;10231;47.702;9.826;2022-10-16T16:16:35;2.63;;;0.90;;
20140;SDS011;10231;47.702;9.826;2022-10-16T16:19:03;2.20;;;0.67;;
20140;SDS011;10231;47.702;9.826;2022-10-16T16:21:29;4.77;;;1.00;;
20140;SDS011;10231;47.702;9.826;2022-10-16T16:23:55;2.53;;;1.00;;
20140;SDS011;10231;47.702;9.826;2022-10-16T16:26:24;0.77;;;0.70;;
20140;SDS011;10231;47.702;9.826;2022-10-16T16:28:57;4.20;;;0.60;;
20140;SDS011;10231;47.702;9.826;2022-10-16T16:31:23;0.60;;;0.60;;
20140;SDS011;10231;47.702;9.826;2022-10-16T16:33:50;2.40;;;0.73;;
20140;SDS011;10231;47.702;9.826;2022-10-16T16:36:16;2.43;;;0.87;;
20140;SDS011;10231;47.702;9.826;2022-10-16T16:38:43;0.90;;;0.90;;
20140;SDS011;10231;47.702;9.826;2022-10-16T16:41:13;2.10;;;0.80;;
20140;SDS011;10231;47.702;9.826;2022-10-16T16:43:39;4.03;;;0.77;;
20140;SDS011;10231;47.702;9.826;2022-10-16T16:46:05;1.90;;;0.80;;